Terminal Aerodrome Forecast
Issued by NWS Twin Cities, MN

Home | Current Version | Previous Version | Graphics & Text | Print | Product List | Glossary On
Versions: 1 2 3 4 5 6 7 8 9 10 11 12 13 14 15 16 17 18 19 20 21 22 23 24 25 26 27
044
FTUS43 KMPX 231133
TAFMSP
TAF
KMSP 231133Z 2312/2418 VRB03KT P6SM BKN050
     FM231400 36004KT P6SM VCSH OVC040
     FM240000 02004KT P6SM SCT030 BKN070
      TEMPO 2408/2412 BKN030
     FM241700 03005KT P6SM SCT045=

USA.gov is the U.S. government's official web portal to all federal, state and local government web resources and services.